Cj Studdert — WDJ2968 — position and weather

sailwx.info

Track history (hours):
 
Tides and Currents Weather Stations Pressure Air Temp Water Temp Dewpoint Dewpoint Depression Visibility Wind Speed Wind Dir Waves Ship Positions

Cj Studdert

Owner: Shamrock Marine, LLC, Houston, TX. More information available from US FCC via Universal Licensing System and Coast Guard Vessel Documentation Center.

Last reported at 2017-Dec-11 17:00 UTC. Time now 2017-Dec-12 04:17 UTC.
Position N 29°44' W 095°03'.

Length 29 m; draft 3 m.

Type: Tug. MMSI: 367763490.

Date/timePositionNaut miles runAvg speedWind from/ knotsBaromVisibWave heightAir tempDewpointWater temp
2017-Dec-11 17:00N 29°44' W 095°03'0 0.0
2017-Dec-11 16:30N 29°44' W 095°03'0 0.0
2017-Dec-11 16:00N 29°44' W 095°03'0 0.0
2017-Dec-11 15:30N 29°44' W 095°03'0 0.0
2017-Dec-11 15:00N 29°44' W 095°03'1 1.5
2017-Dec-11 14:30N 29°44' W 095°02'0 0.3
2017-Dec-11 14:00N 29°44' W 095°02'1 3.0
2017-Dec-11 13:30N 29°43' W 095°01'3 6.1
2017-Dec-11 13:00N 29°41' W 094°59'4 7.5
2017-Dec-11 12:30N 29°37' W 094°57'4 7.8
2017-Dec-11 12:00N 29°34' W 094°55'4 7.7
2017-Dec-11 11:30N 29°30' W 094°53'6 7.1
2017-Dec-11 10:41N 29°25' W 094°50'1 7.2
2017-Dec-11 10:29N 29°24' W 094°49'2 4.5
2017-Dec-11 09:59N 29°22' W 094°49'2 3.6
2017-Dec-11 09:30N 29°22' W 094°51'1 2.0
2017-Dec-11 08:51N 29°23' W 094°52'0 0.2
2017-Dec-11 08:26N 29°23' W 094°52'0 0.0
2017-Dec-11 01:25N 29°23' W 094°52'  
2017-Dec-03 19:54N 28°24' W 096°31'10 6.7
2017-Dec-03 18:22N 28°19' W 096°41'3 6.9
2017-Dec-03 17:59N 28°17' W 096°43'4 7.2
2017-Dec-03 17:29N 28°15' W 096°46'3 6.1
2017-Dec-03 16:59N 28°13' W 096°49'3 6.1
2017-Dec-03 16:31N 28°11' W 096°51'3 6.1
2017-Dec-03 16:00N 28°09' W 096°54'3 5.9
2017-Dec-03 15:30N 28°07' W 096°56'3 6.6
2017-Dec-03 14:59N 28°04' W 096°58'3 6.9
2017-Dec-03 14:30N 28°01' W 097°01'3 6.9
2017-Dec-03 14:00N 27°59' W 097°03'3 6.3
2017-Dec-03 13:29N 27°55' W 097°03'2 5.0
2017-Dec-03 13:00N 27°53' W 097°03'0 0.0
2017-Dec-03 12:29N 27°53' W 097°03'0 0.0
2017-Dec-03 11:58N 27°53' W 097°03'0 0.0
2017-Dec-03 11:30N 27°53' W 097°03'0 0.5
2017-Dec-03 11:00N 27°53' W 097°03'0 0.5
2017-Dec-03 10:29N 27°53' W 097°03'0 0.0
2017-Dec-03 10:01N 27°53' W 097°03'0 0.6
2017-Dec-03 09:30N 27°53' W 097°03'2 3.9
2017-Dec-03 09:00N 27°51' W 097°03'4 7.2
2017-Dec-03 08:30N 27°50' W 097°07'4 7.3
2017-Dec-03 08:00N 27°49' W 097°11'13 1.9
2017-Dec-03 01:26N 27°49' W 097°26'0 0.0
2017-Dec-03 00:46N 27°49' W 097°26'0 0.0
2017-Dec-03 00:16N 27°49' W 097°26'0 0.0
2017-Dec-02 23:37N 27°49' W 097°26'0 0.0
2017-Dec-02 23:29N 27°49' W 097°26'0 0.0
2017-Dec-02 23:00N 27°49' W 097°26'0 0.0
2017-Dec-02 22:30N 27°49' W 097°26'0 0.0
2017-Dec-02 21:57N 27°49' W 097°26'0 0.0
2017-Dec-02 21:30N 27°49' W 097°26'0 0.0
2017-Dec-02 21:00N 27°49' W 097°26'0 0.0
2017-Dec-02 20:30N 27°49' W 097°26'0 0.0
2017-Dec-02 19:54N 27°49' W 097°26'0 0.0
2017-Dec-02 19:28N 27°49' W 097°26'0 0.0
2017-Dec-02 18:58N 27°49' W 097°26'0 0.0
2017-Dec-02 18:30N 27°49' W 097°26'0 0.0
2017-Dec-02 17:59N 27°49' W 097°26'0 0.8
2017-Dec-02 17:26N 27°49' W 097°26'0 0.8
2017-Dec-02 16:55N 27°49' W 097°26'0 0.0
2017-Dec-02 16:24N 27°49' W 097°26'0 0.0
2017-Dec-02 16:00N 27°49' W 097°26'0 0.0
2017-Dec-02 15:29N 27°49' W 097°26'0 0.0
2017-Dec-02 15:00N 27°49' W 097°26'0 0.0
2017-Dec-02 14:29N 27°49' W 097°26'0 0.0
2017-Dec-02 14:00N 27°49' W 097°26'0 0.1
2017-Dec-02 13:30N 27°49' W 097°26'0 0.0
2017-Dec-02 12:59N 27°49' W 097°26'0 0.0
2017-Dec-02 12:30N 27°49' W 097°26'0 0.0
2017-Dec-02 11:59N 27°49' W 097°26'0 0.0
2017-Dec-02 11:29N 27°49' W 097°26'0 0.0
2017-Dec-02 10:59N 27°49' W 097°26'0 0.0
2017-Dec-02 10:29N 27°49' W 097°26'0 0.0
2017-Dec-02 10:00N 27°49' W 097°26'0 0.0
2017-Dec-02 09:30N 27°49' W 097°26'0 0.1
2017-Dec-02 08:59N 27°49' W 097°26'0 0.0
2017-Dec-02 08:31N 27°49' W 097°26'0 0.0
2017-Dec-02 08:00N 27°49' W 097°26'0 0.0
2017-Dec-02 07:30N 27°49' W 097°26'11 2.9
2017-Dec-02 03:41N 27°49' W 097°13'2 7.8
2017-Dec-02 03:29N 27°49' W 097°12'4 8.1
2017-Dec-02 03:00N 27°50' W 097°07'4 7.1
2017-Dec-02 02:29N 27°51' W 097°03'2 3.5
2017-Dec-02 01:59N 27°53' W 097°03'0 0.0
2017-Dec-02 01:31N 27°53' W 097°03'0 0.0
2017-Dec-02 01:00N 27°53' W 097°03'0 0.0
2017-Dec-02 00:29N 27°53' W 097°03'0 0.0
2017-Dec-01 23:59N 27°53' W 097°03'0 0.0
2017-Dec-01 23:30N 27°53' W 097°03'0 0.0
2017-Dec-01 23:00N 27°53' W 097°03'0 0.0
2017-Dec-01 22:29N 27°53' W 097°03'0 0.0
2017-Dec-01 22:01N 27°53' W 097°03'0 0.0
2017-Dec-01 21:29N 27°53' W 097°03'0 0.0
2017-Dec-01 20:59N 27°53' W 097°03'0 0.0
2017-Dec-01 20:30N 27°53' W 097°03'0 0.0
2017-Dec-01 20:00N 27°53' W 097°03'2 3.9
2017-Dec-01 19:30N 27°51' W 097°04'0 0.2
2017-Dec-01 18:59N 27°51' W 097°04'0 0.0
2017-Dec-01 18:29N 27°51' W 097°04'0 0.0
2017-Dec-01 18:00N 27°51' W 097°04'0 0.0
2017-Dec-01 17:30N 27°51' W 097°04'  
Track history (hours):
 
Tides and Currents Weather Stations Pressure Air Temp Water Temp Dewpoint Dewpoint Depression Visibility Wind Speed Wind Dir Waves Ship Positions

Cj Studdert

Owner: Shamrock Marine, LLC, Houston, TX. More information available from US FCC via Universal Licensing System and Coast Guard Vessel Documentation Center.

Last reported at 2017-Dec-11 17:00 UTC. Time now 2017-Dec-12 04:17 UTC.
Position N 29°44' W 095°03'.

Length 29 m; draft 3 m.

Type: Tug. MMSI: 367763490.

Date/timePositionNaut miles runAvg speedWind from/ knotsBaromVisibWave heightAir tempDewpointWater temp
2017-Dec-11 17:00N 29°44' W 095°03'0 0.0
2017-Dec-11 16:30N 29°44' W 095°03'0 0.0
2017-Dec-11 16:00N 29°44' W 095°03'0 0.0
2017-Dec-11 15:30N 29°44' W 095°03'0 0.0
2017-Dec-11 15:00N 29°44' W 095°03'1 1.5
2017-Dec-11 14:30N 29°44' W 095°02'0 0.3
2017-Dec-11 14:00N 29°44' W 095°02'1 3.0
2017-Dec-11 13:30N 29°43' W 095°01'3 6.1
2017-Dec-11 13:00N 29°41' W 094°59'4 7.5
2017-Dec-11 12:30N 29°37' W 094°57'4 7.8
2017-Dec-11 12:00N 29°34' W 094°55'4 7.7
2017-Dec-11 11:30N 29°30' W 094°53'6 7.1
2017-Dec-11 10:41N 29°25' W 094°50'1 7.2
2017-Dec-11 10:29N 29°24' W 094°49'2 4.5
2017-Dec-11 09:59N 29°22' W 094°49'2 3.6
2017-Dec-11 09:30N 29°22' W 094°51'1 2.0
2017-Dec-11 08:51N 29°23' W 094°52'0 0.2
2017-Dec-11 08:26N 29°23' W 094°52'0 0.0
2017-Dec-11 01:25N 29°23' W 094°52'  
2017-Dec-03 19:54N 28°24' W 096°31'10 6.7
2017-Dec-03 18:22N 28°19' W 096°41'3 6.9
2017-Dec-03 17:59N 28°17' W 096°43'4 7.2
2017-Dec-03 17:29N 28°15' W 096°46'3 6.1
2017-Dec-03 16:59N 28°13' W 096°49'3 6.1
2017-Dec-03 16:31N 28°11' W 096°51'3 6.1
2017-Dec-03 16:00N 28°09' W 096°54'3 5.9
2017-Dec-03 15:30N 28°07' W 096°56'3 6.6
2017-Dec-03 14:59N 28°04' W 096°58'3 6.9
2017-Dec-03 14:30N 28°01' W 097°01'3 6.9
2017-Dec-03 14:00N 27°59' W 097°03'3 6.3
2017-Dec-03 13:29N 27°55' W 097°03'2 5.0
2017-Dec-03 13:00N 27°53' W 097°03'0 0.0
2017-Dec-03 12:29N 27°53' W 097°03'0 0.0
2017-Dec-03 11:58N 27°53' W 097°03'0 0.0
2017-Dec-03 11:30N 27°53' W 097°03'0 0.5
2017-Dec-03 11:00N 27°53' W 097°03'0 0.5
2017-Dec-03 10:29N 27°53' W 097°03'0 0.0
2017-Dec-03 10:01N 27°53' W 097°03'0 0.6
2017-Dec-03 09:30N 27°53' W 097°03'2 3.9
2017-Dec-03 09:00N 27°51' W 097°03'4 7.2
2017-Dec-03 08:30N 27°50' W 097°07'4 7.3
2017-Dec-03 08:00N 27°49' W 097°11'13 1.9
2017-Dec-03 01:26N 27°49' W 097°26'0 0.0
2017-Dec-03 00:46N 27°49' W 097°26'0 0.0
2017-Dec-03 00:16N 27°49' W 097°26'0 0.0
2017-Dec-02 23:37N 27°49' W 097°26'0 0.0
2017-Dec-02 23:29N 27°49' W 097°26'0 0.0
2017-Dec-02 23:00N 27°49' W 097°26'0 0.0
2017-Dec-02 22:30N 27°49' W 097°26'0 0.0
2017-Dec-02 21:57N 27°49' W 097°26'0 0.0
2017-Dec-02 21:30N 27°49' W 097°26'0 0.0
2017-Dec-02 21:00N 27°49' W 097°26'0 0.0
2017-Dec-02 20:30N 27°49' W 097°26'0 0.0
2017-Dec-02 19:54N 27°49' W 097°26'0 0.0
2017-Dec-02 19:28N 27°49' W 097°26'0 0.0
2017-Dec-02 18:58N 27°49' W 097°26'0 0.0
2017-Dec-02 18:30N 27°49' W 097°26'0 0.0
2017-Dec-02 17:59N 27°49' W 097°26'0 0.8
2017-Dec-02 17:26N 27°49' W 097°26'0 0.8
2017-Dec-02 16:55N 27°49' W 097°26'0 0.0
2017-Dec-02 16:24N 27°49' W 097°26'0 0.0
2017-Dec-02 16:00N 27°49' W 097°26'0 0.0
2017-Dec-02 15:29N 27°49' W 097°26'0 0.0
2017-Dec-02 15:00N 27°49' W 097°26'0 0.0
2017-Dec-02 14:29N 27°49' W 097°26'0 0.0
2017-Dec-02 14:00N 27°49' W 097°26'0 0.1
2017-Dec-02 13:30N 27°49' W 097°26'0 0.0
2017-Dec-02 12:59N 27°49' W 097°26'0 0.0
2017-Dec-02 12:30N 27°49' W 097°26'0 0.0
2017-Dec-02 11:59N 27°49' W 097°26'0 0.0
2017-Dec-02 11:29N 27°49' W 097°26'0 0.0
2017-Dec-02 10:59N 27°49' W 097°26'0 0.0
2017-Dec-02 10:29N 27°49' W 097°26'0 0.0
2017-Dec-02 10:00N 27°49' W 097°26'0 0.0
2017-Dec-02 09:30N 27°49' W 097°26'0 0.1
2017-Dec-02 08:59N 27°49' W 097°26'0 0.0
2017-Dec-02 08:31N 27°49' W 097°26'0 0.0
2017-Dec-02 08:00N 27°49' W 097°26'0 0.0
2017-Dec-02 07:30N 27°49' W 097°26'11 2.9
2017-Dec-02 03:41N 27°49' W 097°13'2 7.8
2017-Dec-02 03:29N 27°49' W 097°12'4 8.1
2017-Dec-02 03:00N 27°50' W 097°07'4 7.1
2017-Dec-02 02:29N 27°51' W 097°03'2 3.5
2017-Dec-02 01:59N 27°53' W 097°03'0 0.0
2017-Dec-02 01:31N 27°53' W 097°03'0 0.0
2017-Dec-02 01:00N 27°53' W 097°03'0 0.0
2017-Dec-02 00:29N 27°53' W 097°03'0 0.0
2017-Dec-01 23:59N 27°53' W 097°03'0 0.0
2017-Dec-01 23:30N 27°53' W 097°03'0 0.0
2017-Dec-01 23:00N 27°53' W 097°03'0 0.0
2017-Dec-01 22:29N 27°53' W 097°03'0 0.0
2017-Dec-01 22:01N 27°53' W 097°03'0 0.0
2017-Dec-01 21:29N 27°53' W 097°03'0 0.0
2017-Dec-01 20:59N 27°53' W 097°03'0 0.0
2017-Dec-01 20:30N 27°53' W 097°03'0 0.0
2017-Dec-01 20:00N 27°53' W 097°03'2 3.9
2017-Dec-01 19:30N 27°51' W 097°04'0 0.2
2017-Dec-01 18:59N 27°51' W 097°04'0 0.0
2017-Dec-01 18:29N 27°51' W 097°04'0 0.0
2017-Dec-01 18:00N 27°51' W 097°04'0 0.0
2017-Dec-01 17:30N 27°51' W 097°04'  

Dump ship's entire track history